Kansas City, Missouri
Traffic Map
Current Weather Conditions
Kansas City, Missouri
Broken Clouds Moderate Fog
Broken Clouds
60°
Feels Like: 60°
Wind Chill: 60° Ceiling: 5500
Heat Index: 60° Visibility: 0.5mi
Dew Point: 58° Wind: 0mph
Humidity: 93% Direction: ° ()
Pressure: 29.75in Gusts: 0mph
Raw Report DataKMKC 190813Z 00000KT 1/2SM FG FEW003 SCT047 BKN055 16/14 A2975 RMK AO2 T01560144
Traffic Incident Summary
Active as of:
Severity:
Category:
InformationThere was an issue retrieving the traffic information for this location. Please try a different location or try again shortly.
Advertisements
Track Severe Weather on mobile